sensor_id;sensor_type;location;lat;lon;timestamp;pressure;altitude;pressure_sealevel;temperature;humidity
20444;BME280;10381;53.730;10.010;2023-05-20T00:02:22;102353.91;;;8.20;100.00
20444;BME280;10381;53.730;10.010;2023-05-20T00:06:22;102354.72;;;8.04;100.00
20444;BME280;10381;53.730;10.010;2023-05-20T00:10:23;102355.38;;;7.92;100.00
20444;BME280;10381;53.730;10.010;2023-05-20T00:14:23;102358.63;;;7.97;100.00
20444;BME280;10381;53.730;10.010;2023-05-20T00:18:23;102363.16;;;7.78;100.00
20444;BME280;10381;53.730;10.010;2023-05-20T00:22:23;102355.16;;;7.62;100.00
20444;BME280;10381;53.730;10.010;2023-05-20T00:26:24;102353.53;;;7.59;100.00
20444;BME280;10381;53.730;10.010;2023-05-20T00:30:25;102355.38;;;7.40;100.00
20444;BME280;10381;53.730;10.010;2023-05-20T00:34:25;102344.78;;;7.41;100.00
20444;BME280;10381;53.730;10.010;2023-05-20T00:38:25;102341.66;;;7.33;100.00
20444;BME280;10381;53.730;10.010;2023-05-20T00:42:27;102337.38;;;7.31;100.00
20444;BME280;10381;53.730;10.010;2023-05-20T00:46:27;102336.84;;;7.41;100.00
20444;BME280;10381;53.730;10.010;2023-05-20T00:50:28;102328.88;;;7.60;100.00
20444;BME280;10381;53.730;10.010;2023-05-20T00:54:29;102323.25;;;7.66;100.00
20444;BME280;10381;53.730;10.010;2023-05-20T00:58:30;102335.00;;;7.61;100.00
20444;BME280;10381;53.730;10.010;2023-05-20T01:02:30;102322.63;;;7.79;100.00
20444;BME280;10381;53.730;10.010;2023-05-20T01:06:30;102321.91;;;7.93;100.00
20444;BME280;10381;53.730;10.010;2023-05-20T01:10:34;102326.09;;;7.97;100.00
20444;BME280;10381;53.730;10.010;2023-05-20T01:14:48;102323.53;;;7.95;100.00
20444;BME280;10381;53.730;10.010;2023-05-20T01:18:52;102315.63;;;7.95;100.00
20444;BME280;10381;53.730;10.010;2023-05-20T01:22:55;102316.41;;;7.97;100.00
20444;BME280;10381;53.730;10.010;2023-05-20T01:26:56;102316.69;;;7.91;100.00
20444;BME280;10381;53.730;10.010;2023-05-20T01:30:59;102313.94;;;7.94;100.00
20444;BME280;10381;53.730;10.010;2023-05-20T01:35:01;102312.91;;;7.97;100.00
20444;BME280;10381;53.730;10.010;2023-05-20T01:39:02;102319.69;;;7.85;100.00
20444;BME280;10381;53.730;10.010;2023-05-20T01:43:05;102313.69;;;7.81;100.00
20444;BME280;10381;53.730;10.010;2023-05-20T01:47:06;102320.38;;;7.71;100.00
20444;BME280;10381;53.730;10.010;2023-05-20T01:51:06;102310.84;;;7.68;100.00
20444;BME280;10381;53.730;10.010;2023-05-20T01:55:06;102318.09;;;7.65;100.00
20444;BME280;10381;53.730;10.010;2023-05-20T01:59:07;102318.00;;;7.66;100.00
20444;BME280;10381;53.730;10.010;2023-05-20T02:03:07;102315.53;;;7.46;100.00
20444;BME280;10381;53.730;10.010;2023-05-20T02:07:07;102314.59;;;7.47;100.00
20444;BME280;10381;53.730;10.010;2023-05-20T02:11:08;102316.22;;;7.50;100.00
20444;BME280;10381;53.730;10.010;2023-05-20T02:15:08;102314.66;;;7.45;100.00
20444;BME280;10381;53.730;10.010;2023-05-20T02:19:08;102317.22;;;7.47;100.00
20444;BME280;10381;53.730;10.010;2023-05-20T02:23:11;102307.41;;;7.51;100.00
20444;BME280;10381;53.730;10.010;2023-05-20T02:27:12;102296.13;;;7.47;100.00
20444;BME280;10381;53.730;10.010;2023-05-20T02:31:12;102299.25;;;7.55;100.00
20444;BME280;10381;53.730;10.010;2023-05-20T02:35:12;102293.81;;;7.58;100.00
20444;BME280;10381;53.730;10.010;2023-05-20T02:39:13;102301.25;;;7.50;100.00
20444;BME280;10381;53.730;10.010;2023-05-20T02:43:13;102298.94;;;7.44;100.00
20444;BME280;10381;53.730;10.010;2023-05-20T02:47:13;102304.28;;;7.42;100.00
20444;BME280;10381;53.730;10.010;2023-05-20T02:51:13;102296.13;;;7.47;100.00
20444;BME280;10381;53.730;10.010;2023-05-20T02:55:14;102308.53;;;7.45;100.00
20444;BME280;10381;53.730;10.010;2023-05-20T02:59:14;102302.19;;;7.32;100.00
20444;BME280;10381;53.730;10.010;2023-05-20T03:03:15;102312.41;;;7.38;100.00
20444;BME280;10381;53.730;10.010;2023-05-20T03:07:15;102321.59;;;7.48;100.00
20444;BME280;10381;53.730;10.010;2023-05-20T03:11:18;102325.47;;;7.41;100.00
20444;BME280;10381;53.730;10.010;2023-05-20T03:15:18;102322.66;;;7.44;100.00
20444;BME280;10381;53.730;10.010;2023-05-20T03:19:19;102331.19;;;7.49;100.00
20444;BME280;10381;53.730;10.010;2023-05-20T03:23:19;102325.31;;;7.44;100.00
20444;BME280;10381;53.730;10.010;2023-05-20T03:27:20;102322.81;;;7.41;100.00
20444;BME280;10381;53.730;10.010;2023-05-20T03:31:20;102325.31;;;7.44;100.00
20444;BME280;10381;53.730;10.010;2023-05-20T03:35:20;102314.06;;;7.58;100.00
20444;BME280;10381;53.730;10.010;2023-05-20T03:39:21;102316.91;;;7.71;100.00
20444;BME280;10381;53.730;10.010;2023-05-20T03:43:21;102312.00;;;7.80;100.00
20444;BME280;10381;53.730;10.010;2023-05-20T03:47:21;102322.75;;;7.93;100.00
20444;BME280;10381;53.730;10.010;2023-05-20T03:51:21;102326.09;;;7.97;100.00
20444;BME280;10381;53.730;10.010;2023-05-20T03:55:22;102321.00;;;8.09;100.00
20444;BME280;10381;53.730;10.010;2023-05-20T03:59:22;102322.56;;;8.14;100.00
20444;BME280;10381;53.730;10.010;2023-05-20T04:03:23;102322.09;;;8.23;100.00
20444;BME280;10381;53.730;10.010;2023-05-20T04:07:24;102320.72;;;8.31;100.00
20444;BME280;10381;53.730;10.010;2023-05-20T04:11:24;102313.09;;;8.43;100.00
20444;BME280;10381;53.730;10.010;2023-05-20T04:15:25;102325.88;;;8.50;100.00
20444;BME280;10381;53.730;10.010;2023-05-20T04:19:25;102322.97;;;8.55;100.00
20444;BME280;10381;53.730;10.010;2023-05-20T04:23:27;102321.22;;;9.02;100.00
20444;BME280;10381;53.730;10.010;2023-05-20T04:27:27;102313.78;;;9.69;100.00
20444;BME280;10381;53.730;10.010;2023-05-20T04:31:29;102321.84;;;10.24;100.00
20444;BME280;10381;53.730;10.010;2023-05-20T04:35:29;102318.06;;;10.43;100.00
20444;BME280;10381;53.730;10.010;2023-05-20T04:39:30;102322.59;;;10.55;100.00
20444;BME280;10381;53.730;10.010;2023-05-20T04:43:30;102315.38;;;10.57;100.00
20444;BME280;10381;53.730;10.010;2023-05-20T04:47:30;102314.84;;;10.79;100.00
20444;BME280;10381;53.730;10.010;2023-05-20T04:51:31;102325.03;;;10.73;100.00
20444;BME280;10381;53.730;10.010;2023-05-20T04:55:31;102315.31;;;10.86;100.00
20444;BME280;10381;53.730;10.010;2023-05-20T04:59:31;102314.66;;;11.09;100.00
20444;BME280;10381;53.730;10.010;2023-05-20T05:03:32;102315.16;;;11.02;100.00
20444;BME280;10381;53.730;10.010;2023-05-20T05:07:32;102313.25;;;10.77;100.00
20444;BME280;10381;53.730;10.010;2023-05-20T05:11:32;102313.81;;;10.82;100.00
20444;BME280;10381;53.730;10.010;2023-05-20T05:15:33;102312.91;;;11.36;100.00
20444;BME280;10381;53.730;10.010;2023-05-20T05:19:33;102313.00;;;11.34;100.00
20444;BME280;10381;53.730;10.010;2023-05-20T05:23:33;102317.63;;;11.58;100.00
20444;BME280;10381;53.730;10.010;2023-05-20T05:27:33;102306.13;;;11.44;100.00
20444;BME280;10381;53.730;10.010;2023-05-20T05:31:34;102315.81;;;11.71;100.00
20444;BME280;10381;53.730;10.010;2023-05-20T05:35:35;102316.13;;;12.30;100.00
20444;BME280;10381;53.730;10.010;2023-05-20T05:39:35;102324.56;;;12.61;100.00
20444;BME280;10381;53.730;10.010;2023-05-20T05:43:36;102315.34;;;12.78;100.00
20444;BME280;10381;53.730;10.010;2023-05-20T05:47:37;102313.19;;;13.07;100.00
20444;BME280;10381;53.730;10.010;2023-05-20T05:51:37;102314.28;;;13.29;100.00
20444;BME280;10381;53.730;10.010;2023-05-20T05:55:37;102316.59;;;13.09;100.00
20444;BME280;10381;53.730;10.010;2023-05-20T05:59:38;102316.25;;;13.14;100.00
20444;BME280;10381;53.730;10.010;2023-05-20T06:03:38;102318.91;;;13.38;100.00
20444;BME280;10381;53.730;10.010;2023-05-20T06:07:38;102321.53;;;13.84;100.00
20444;BME280;10381;53.730;10.010;2023-05-20T06:11:38;102318.16;;;14.05;100.00
20444;BME280;10381;53.730;10.010;2023-05-20T06:15:41;102326.03;;;13.95;100.00
20444;BME280;10381;53.730;10.010;2023-05-20T06:19:41;102319.09;;;14.38;100.00
20444;BME280;10381;53.730;10.010;2023-05-20T06:23:42;102321.91;;;14.14;100.00
20444;BME280;10381;53.730;10.010;2023-05-20T06:27:42;102317.06;;;13.96;100.00
20444;BME280;10381;53.730;10.010;2023-05-20T06:31:42;102316.91;;;13.75;100.00
20444;BME280;10381;53.730;10.010;2023-05-20T06:35:42;102303.09;;;13.70;100.00
20444;BME280;10381;53.730;10.010;2023-05-20T06:39:43;102293.28;;;13.71;100.00
20444;BME280;10381;53.730;10.010;2023-05-20T06:43:43;102294.41;;;14.13;100.00
20444;BME280;10381;53.730;10.010;2023-05-20T06:47:43;102302.56;;;14.78;100.00
20444;BME280;10381;53.730;10.010;2023-05-20T06:51:44;102303.81;;;14.51;100.00
20444;BME280;10381;53.730;10.010;2023-05-20T06:55:44;102293.88;;;14.53;100.00
20444;BME280;10381;53.730;10.010;2023-05-20T06:59:44;102291.13;;;14.43;100.00
20444;BME280;10381;53.730;10.010;2023-05-20T07:03:45;102290.63;;;14.61;100.00
20444;BME280;10381;53.730;10.010;2023-05-20T07:07:45;102295.41;;;14.78;100.00
20444;BME280;10381;53.730;10.010;2023-05-20T07:11:46;102290.91;;;14.79;100.00
20444;BME280;10381;53.730;10.010;2023-05-20T07:15:46;102287.63;;;14.86;100.00
20444;BME280;10381;53.730;10.010;2023-05-20T07:19:46;102288.38;;;15.09;100.00
20444;BME280;10381;53.730;10.010;2023-05-20T07:23:47;102299.44;;;15.05;100.00
20444;BME280;10381;53.730;10.010;2023-05-20T07:27:47;102289.44;;;15.18;100.00
20444;BME280;10381;53.730;10.010;2023-05-20T07:31:47;102295.72;;;15.17;100.00
20444;BME280;10381;53.730;10.010;2023-05-20T07:35:48;102286.34;;;15.02;100.00
20444;BME280;10381;53.730;10.010;2023-05-20T07:39:48;102283.25;;;15.18;100.00
20444;BME280;10381;53.730;10.010;2023-05-20T07:43:48;102287.72;;;15.17;100.00
20444;BME280;10381;53.730;10.010;2023-05-20T07:47:49;102294.13;;;15.26;100.00
20444;BME280;10381;53.730;10.010;2023-05-20T07:51:49;102285.50;;;15.64;100.00
20444;BME280;10381;53.730;10.010;2023-05-20T07:55:49;102280.78;;;15.47;100.00
20444;BME280;10381;53.730;10.010;2023-05-20T07:59:50;102273.09;;;15.32;100.00
20444;BME280;10381;53.730;10.010;2023-05-20T08:03:50;102287.56;;;15.30;100.00
20444;BME280;10381;53.730;10.010;2023-05-20T08:07:50;102286.81;;;15.49;100.00
20444;BME280;10381;53.730;10.010;2023-05-20T08:11:50;102276.75;;;15.73;100.00
20444;BME280;10381;53.730;10.010;2023-05-20T08:15:53;102275.47;;;15.77;100.00
20444;BME280;10381;53.730;10.010;2023-05-20T08:19:54;102282.94;;;16.05;100.00
20444;BME280;10381;53.730;10.010;2023-05-20T08:23:54;102277.84;;;16.61;100.00
20444;BME280;10381;53.730;10.010;2023-05-20T08:27:54;102281.00;;;16.16;100.00
20444;BME280;10381;53.730;10.010;2023-05-20T08:31:54;102260.94;;;16.42;100.00
20444;BME280;10381;53.730;10.010;2023-05-20T08:35:55;102267.94;;;16.33;100.00
20444;BME280;10381;53.730;10.010;2023-05-20T08:39:55;102255.72;;;16.59;100.00
20444;BME280;10381;53.730;10.010;2023-05-20T08:43:56;102265.97;;;16.35;100.00
20444;BME280;10381;53.730;10.010;2023-05-20T08:47:59;102258.78;;;15.85;100.00
20444;BME280;10381;53.730;10.010;2023-05-20T08:52:00;102255.22;;;16.15;100.00
20444;BME280;10381;53.730;10.010;2023-05-20T08:56:01;102245.84;;;15.60;100.00
20444;BME280;10381;53.730;10.010;2023-05-20T09:00:04;102248.47;;;15.71;100.00
20444;BME280;10381;53.730;10.010;2023-05-20T09:04:12;102263.13;;;16.87;100.00
20444;BME280;10381;53.730;10.010;2023-05-20T09:08:12;102246.00;;;17.36;100.00
20444;BME280;10381;53.730;10.010;2023-05-20T09:12:13;102252.53;;;17.04;100.00
20444;BME280;10381;53.730;10.010;2023-05-20T09:16:13;102247.19;;;17.04;100.00
20444;BME280;10381;53.730;10.010;2023-05-20T09:20:14;102247.91;;;16.87;100.00
20444;BME280;10381;53.730;10.010;2023-05-20T09:24:22;102233.09;;;16.83;100.00
20444;BME280;10381;53.730;10.010;2023-05-20T09:28:23;102223.66;;;17.08;100.00
20444;BME280;10381;53.730;10.010;2023-05-20T09:32:24;102237.59;;;16.73;100.00
20444;BME280;10381;53.730;10.010;2023-05-20T09:36:28;102228.88;;;17.57;100.00
20444;BME280;10381;53.730;10.010;2023-05-20T09:40:29;102225.47;;;16.59;100.00
20444;BME280;10381;53.730;10.010;2023-05-20T09:44:29;102222.06;;;16.57;100.00
20444;BME280;10381;53.730;10.010;2023-05-20T09:48:30;102216.28;;;16.32;100.00
20444;BME280;10381;53.730;10.010;2023-05-20T09:52:32;102219.53;;;17.23;100.00
20444;BME280;10381;53.730;10.010;2023-05-20T09:56:33;102214.22;;;16.94;100.00
20444;BME280;10381;53.730;10.010;2023-05-20T10:00:34;102216.16;;;17.12;100.00
20444;BME280;10381;53.730;10.010;2023-05-20T10:04:36;102211.78;;;16.52;100.00
20444;BME280;10381;53.730;10.010;2023-05-20T10:08:58;102215.28;;;16.14;100.00
20444;BME280;10381;53.730;10.010;2023-05-20T10:18:41;102198.41;;;15.73;100.00
20444;BME280;10381;53.730;10.010;2023-05-20T10:22:13;102201.72;;;15.34;100.00
20444;BME280;10381;53.730;10.010;2023-05-20T10:26:13;102197.13;;;15.16;100.00
20444;BME280;10381;53.730;10.010;2023-05-20T10:30:15;102188.06;;;15.07;100.00
20444;BME280;10381;53.730;10.010;2023-05-20T10:34:17;102190.44;;;14.68;100.00
20444;BME280;10381;53.730;10.010;2023-05-20T10:38:18;102188.69;;;14.78;100.00
20444;BME280;10381;53.730;10.010;2023-05-20T10:42:27;102174.25;;;15.02;100.00
20444;BME280;10381;53.730;10.010;2023-05-20T10:46:29;102169.22;;;15.60;100.00
20444;BME280;10381;53.730;10.010;2023-05-20T10:50:34;102169.22;;;16.01;100.00
20444;BME280;10381;53.730;10.010;2023-05-20T10:54:36;102172.88;;;17.26;100.00
20444;BME280;10381;53.730;10.010;2023-05-20T10:58:37;102172.00;;;17.63;100.00
20444;BME280;10381;53.730;10.010;2023-05-20T11:02:38;102169.84;;;16.92;100.00
20444;BME280;10381;53.730;10.010;2023-05-20T11:06:49;102156.47;;;16.92;100.00
20444;BME280;10381;53.730;10.010;2023-05-20T11:10:49;102164.75;;;17.08;100.00
20444;BME280;10381;53.730;10.010;2023-05-20T11:14:50;102160.94;;;17.11;100.00
20444;BME280;10381;53.730;10.010;2023-05-20T11:18:50;102162.28;;;17.34;100.00
20444;BME280;10381;53.730;10.010;2023-05-20T11:22:52;102159.00;;;16.54;100.00
20444;BME280;10381;53.730;10.010;2023-05-20T11:26:55;102155.34;;;16.75;100.00
20444;BME280;10381;53.730;10.010;2023-05-20T11:30:58;102145.91;;;16.80;100.00
20444;BME280;10381;53.730;10.010;2023-05-20T11:34:58;102140.13;;;16.46;100.00
20444;BME280;10381;53.730;10.010;2023-05-20T11:38:59;102140.00;;;15.68;100.00
20444;BME280;10381;53.730;10.010;2023-05-20T11:43:01;102143.75;;;16.06;100.00
20444;BME280;10381;53.730;10.010;2023-05-20T11:47:02;102139.38;;;15.86;100.00
20444;BME280;10381;53.730;10.010;2023-05-20T11:51:03;102131.00;;;15.69;100.00
20444;BME280;10381;53.730;10.010;2023-05-20T11:55:04;102137.28;;;15.99;100.00
20444;BME280;10381;53.730;10.010;2023-05-20T11:59:10;102139.28;;;16.65;100.00
20444;BME280;10381;53.730;10.010;2023-05-20T12:03:10;102140.72;;;16.79;100.00
20444;BME280;10381;53.730;10.010;2023-05-20T12:07:10;102130.97;;;16.58;100.00
20444;BME280;10381;53.730;10.010;2023-05-20T12:11:11;102125.31;;;16.71;100.00
20444;BME280;10381;53.730;10.010;2023-05-20T12:15:11;102132.53;;;16.51;100.00
20444;BME280;10381;53.730;10.010;2023-05-20T12:19:11;102132.25;;;16.45;100.00
20444;BME280;10381;53.730;10.010;2023-05-20T12:23:12;102122.84;;;16.31;100.00
20444;BME280;10381;53.730;10.010;2023-05-20T12:27:12;102127.53;;;15.79;100.00
20444;BME280;10381;53.730;10.010;2023-05-20T12:31:12;102122.03;;;15.70;100.00
20444;BME280;10381;53.730;10.010;2023-05-20T12:35:12;102120.81;;;15.94;100.00
20444;BME280;10381;53.730;10.010;2023-05-20T12:39:13;102113.91;;;15.82;100.00
20444;BME280;10381;53.730;10.010;2023-05-20T12:43:16;102107.44;;;15.94;100.00
20444;BME280;10381;53.730;10.010;2023-05-20T12:47:17;102102.69;;;15.88;100.00
20444;BME280;10381;53.730;10.010;2023-05-20T12:51:17;102102.06;;;15.74;100.00
20444;BME280;10381;53.730;10.010;2023-05-20T12:55:19;102100.97;;;15.46;100.00
20444;BME280;10381;53.730;10.010;2023-05-20T12:59:20;102109.38;;;15.72;100.00
20444;BME280;10381;53.730;10.010;2023-05-20T13:03:20;102098.44;;;15.85;100.00
20444;BME280;10381;53.730;10.010;2023-05-20T13:07:20;102101.56;;;15.90;100.00
20444;BME280;10381;53.730;10.010;2023-05-20T13:11:20;102097.84;;;15.72;100.00
20444;BME280;10381;53.730;10.010;2023-05-20T13:15:21;102091.09;;;15.77;100.00
20444;BME280;10381;53.730;10.010;2023-05-20T13:19:21;102086.25;;;15.52;100.00
20444;BME280;10381;53.730;10.010;2023-05-20T13:23:22;102078.91;;;15.44;100.00
20444;BME280;10381;53.730;10.010;2023-05-20T13:27:22;102076.50;;;16.21;100.00
20444;BME280;10381;53.730;10.010;2023-05-20T13:31:22;102066.03;;;16.66;100.00
20444;BME280;10381;53.730;10.010;2023-05-20T13:35:23;102062.06;;;16.90;100.00
20444;BME280;10381;53.730;10.010;2023-05-20T13:39:23;102060.59;;;16.48;100.00
20444;BME280;10381;53.730;10.010;2023-05-20T13:43:24;102060.75;;;15.79;100.00
20444;BME280;10381;53.730;10.010;2023-05-20T13:47:26;102055.31;;;15.49;100.00
20444;BME280;10381;53.730;10.010;2023-05-20T13:51:26;102054.66;;;15.67;100.00
20444;BME280;10381;53.730;10.010;2023-05-20T13:55:26;102040.00;;;16.58;100.00
20444;BME280;10381;53.730;10.010;2023-05-20T13:59:27;102041.41;;;16.82;100.00
20444;BME280;10381;53.730;10.010;2023-05-20T14:03:28;102034.16;;;16.16;100.00
20444;BME280;10381;53.730;10.010;2023-05-20T14:07:28;102038.25;;;15.81;100.00
20444;BME280;10381;53.730;10.010;2023-05-20T14:11:28;102027.38;;;16.41;100.00
20444;BME280;10381;53.730;10.010;2023-05-20T14:15:29;102025.28;;;16.15;100.00
20444;BME280;10381;53.730;10.010;2023-05-20T14:19:29;102022.34;;;15.99;100.00
20444;BME280;10381;53.730;10.010;2023-05-20T14:23:29;102011.19;;;15.55;100.00
20444;BME280;10381;53.730;10.010;2023-05-20T14:27:30;102009.72;;;15.31;100.00
20444;BME280;10381;53.730;10.010;2023-05-20T14:31:30;102011.94;;;15.76;100.00
20444;BME280;10381;53.730;10.010;2023-05-20T14:35:30;102012.56;;;16.56;100.00
20444;BME280;10381;53.730;10.010;2023-05-20T14:39:31;102004.63;;;16.84;100.00
20444;BME280;10381;53.730;10.010;2023-05-20T14:43:31;101996.78;;;16.63;100.00
20444;BME280;10381;53.730;10.010;2023-05-20T14:47:32;101993.50;;;16.22;100.00
20444;BME280;10381;53.730;10.010;2023-05-20T14:51:32;101991.13;;;16.09;100.00
20444;BME280;10381;53.730;10.010;2023-05-20T14:55:32;101984.03;;;16.28;100.00
20444;BME280;10381;53.730;10.010;2023-05-20T14:59:33;101977.84;;;16.37;100.00
20444;BME280;10381;53.730;10.010;2023-05-20T15:03:33;101973.94;;;16.69;100.00
20444;BME280;10381;53.730;10.010;2023-05-20T15:07:33;101980.44;;;16.56;100.00
20444;BME280;10381;53.730;10.010;2023-05-20T15:11:34;101979.66;;;16.93;100.00
20444;BME280;10381;53.730;10.010;2023-05-20T15:15:34;101971.94;;;16.80;100.00
20444;BME280;10381;53.730;10.010;2023-05-20T15:19:34;101961.41;;;16.59;100.00
20444;BME280;10381;53.730;10.010;2023-05-20T15:23:36;101965.09;;;16.58;100.00
20444;BME280;10381;53.730;10.010;2023-05-20T15:27:36;101954.22;;;16.23;100.00
20444;BME280;10381;53.730;10.010;2023-05-20T15:31:36;101952.06;;;16.46;100.00
20444;BME280;10381;53.730;10.010;2023-05-20T15:35:36;101958.75;;;16.59;100.00
20444;BME280;10381;53.730;10.010;2023-05-20T15:39:37;101958.19;;;16.66;100.00
20444;BME280;10381;53.730;10.010;2023-05-20T15:43:38;101949.63;;;16.05;100.00
20444;BME280;10381;53.730;10.010;2023-05-20T15:47:38;101947.66;;;16.07;100.00
20444;BME280;10381;53.730;10.010;2023-05-20T15:51:38;101936.41;;;15.94;100.00
20444;BME280;10381;53.730;10.010;2023-05-20T15:55:38;101931.59;;;16.07;100.00
20444;BME280;10381;53.730;10.010;2023-05-20T15:59:39;101923.53;;;16.27;100.00
20444;BME280;10381;53.730;10.010;2023-05-20T16:03:39;101922.94;;;16.33;100.00
20444;BME280;10381;53.730;10.010;2023-05-20T16:07:40;101921.72;;;16.17;100.00
20444;BME280;10381;53.730;10.010;2023-05-20T16:11:41;101920.41;;;16.41;100.00
20444;BME280;10381;53.730;10.010;2023-05-20T16:15:41;101917.56;;;16.43;100.00
20444;BME280;10381;53.730;10.010;2023-05-20T16:19:41;101923.41;;;16.18;100.00
20444;BME280;10381;53.730;10.010;2023-05-20T16:23:42;101908.19;;;16.29;100.00
20444;BME280;10381;53.730;10.010;2023-05-20T16:27:42;101904.69;;;16.18;100.00
20444;BME280;10381;53.730;10.010;2023-05-20T16:31:42;101900.25;;;16.00;100.00
20444;BME280;10381;53.730;10.010;2023-05-20T16:35:45;101896.78;;;16.64;100.00
20444;BME280;10381;53.730;10.010;2023-05-20T16:39:45;101911.09;;;16.35;100.00
20444;BME280;10381;53.730;10.010;2023-05-20T16:43:45;101899.56;;;15.97;100.00
20444;BME280;10381;53.730;10.010;2023-05-20T16:47:46;101891.13;;;15.53;100.00
20444;BME280;10381;53.730;10.010;2023-05-20T16:51:46;101885.78;;;15.24;100.00
20444;BME280;10381;53.730;10.010;2023-05-20T16:55:46;101880.28;;;14.97;100.00
20444;BME280;10381;53.730;10.010;2023-05-20T16:59:47;101882.63;;;14.80;100.00
20444;BME280;10381;53.730;10.010;2023-05-20T17:03:47;101892.41;;;14.70;100.00
20444;BME280;10381;53.730;10.010;2023-05-20T17:07:47;101892.97;;;14.74;100.00
20444;BME280;10381;53.730;10.010;2023-05-20T17:11:48;101886.53;;;14.76;100.00
20444;BME280;10381;53.730;10.010;2023-05-20T17:15:50;101898.16;;;14.65;100.00
20444;BME280;10381;53.730;10.010;2023-05-20T17:19:50;101887.09;;;14.80;100.00
20444;BME280;10381;53.730;10.010;2023-05-20T17:23:50;101892.41;;;14.70;100.00
20444;BME280;10381;53.730;10.010;2023-05-20T17:27:50;101892.91;;;14.54;100.00
20444;BME280;10381;53.730;10.010;2023-05-20T17:31:51;101890.88;;;14.46;100.00
20444;BME280;10381;53.730;10.010;2023-05-20T17:35:51;101892.16;;;14.52;100.00
20444;BME280;10381;53.730;10.010;2023-05-20T17:39:51;101875.69;;;14.37;100.00
20444;BME280;10381;53.730;10.010;2023-05-20T17:43:51;101882.97;;;14.35;100.00
20444;BME280;10381;53.730;10.010;2023-05-20T17:47:52;101884.63;;;14.26;100.00
20444;BME280;10381;53.730;10.010;2023-05-20T17:51:52;101885.44;;;14.17;100.00
20444;BME280;10381;53.730;10.010;2023-05-20T17:55:52;101891.03;;;14.14;100.00
20444;BME280;10381;53.730;10.010;2023-05-20T17:59:52;101892.59;;;14.17;100.00
20444;BME280;10381;53.730;10.010;2023-05-20T18:03:54;101883.88;;;14.15;100.00
20444;BME280;10381;53.730;10.010;2023-05-20T18:07:54;101878.59;;;14.03;100.00
20444;BME280;10381;53.730;10.010;2023-05-20T18:11:55;101880.56;;;14.01;100.00
20444;BME280;10381;53.730;10.010;2023-05-20T18:15:55;101873.22;;;13.94;100.00
20444;BME280;10381;53.730;10.010;2023-05-20T18:19:55;101879.38;;;13.94;100.00
20444;BME280;10381;53.730;10.010;2023-05-20T18:23:56;101874.13;;;14.04;100.00
20444;BME280;10381;53.730;10.010;2023-05-20T18:27:56;101880.09;;;13.96;100.00
20444;BME280;10381;53.730;10.010;2023-05-20T18:31:56;101864.78;;;13.89;100.00
20444;BME280;10381;53.730;10.010;2023-05-20T18:35:57;101862.44;;;13.74;100.00
20444;BME280;10381;53.730;10.010;2023-05-20T18:39:57;101863.50;;;13.62;100.00
20444;BME280;10381;53.730;10.010;2023-05-20T18:43:58;101867.03;;;13.51;100.00
20444;BME280;10381;53.730;10.010;2023-05-20T18:47:58;101870.00;;;13.37;100.00
20444;BME280;10381;53.730;10.010;2023-05-20T18:51:58;101871.25;;;13.21;100.00
20444;BME280;10381;53.730;10.010;2023-05-20T18:55:59;101873.25;;;12.97;100.00
20444;BME280;10381;53.730;10.010;2023-05-20T19:00:02;101881.78;;;12.68;100.00
20444;BME280;10381;53.730;10.010;2023-05-20T19:04:06;101887.44;;;12.52;100.00
20444;BME280;10381;53.730;10.010;2023-05-20T19:08:06;101882.88;;;12.32;100.00
20444;BME280;10381;53.730;10.010;2023-05-20T19:12:08;101892.63;;;12.09;100.00
20444;BME280;10381;53.730;10.010;2023-05-20T19:16:08;101886.78;;;11.92;100.00
20444;BME280;10381;53.730;10.010;2023-05-20T19:20:09;101887.25;;;11.86;100.00
20444;BME280;10381;53.730;10.010;2023-05-20T19:24:11;101875.84;;;11.62;100.00
20444;BME280;10381;53.730;10.010;2023-05-20T19:28:11;101882.50;;;11.43;100.00
20444;BME280;10381;53.730;10.010;2023-05-20T19:32:12;101879.94;;;11.30;100.00
20444;BME280;10381;53.730;10.010;2023-05-20T19:36:12;101885.69;;;11.24;100.00
20444;BME280;10381;53.730;10.010;2023-05-20T19:40:12;101882.22;;;11.35;100.00
20444;BME280;10381;53.730;10.010;2023-05-20T19:44:13;101873.91;;;11.40;100.00
20444;BME280;10381;53.730;10.010;2023-05-20T19:48:13;101884.25;;;11.56;100.00
20444;BME280;10381;53.730;10.010;2023-05-20T19:52:14;101897.28;;;11.59;100.00
20444;BME280;10381;53.730;10.010;2023-05-20T19:56:15;101893.19;;;11.55;100.00
20444;BME280;10381;53.730;10.010;2023-05-20T20:00:19;101889.56;;;11.56;100.00
20444;BME280;10381;53.730;10.010;2023-05-20T20:04:20;101887.22;;;11.51;100.00
20444;BME280;10381;53.730;10.010;2023-05-20T20:08:20;101888.31;;;11.48;100.00
20444;BME280;10381;53.730;10.010;2023-05-20T20:12:20;101891.31;;;11.44;100.00
20444;BME280;10381;53.730;10.010;2023-05-20T20:16:21;101891.03;;;11.36;100.00
20444;BME280;10381;53.730;10.010;2023-05-20T20:20:21;101882.69;;;11.29;100.00
20444;BME280;10381;53.730;10.010;2023-05-20T20:24:24;101883.41;;;11.31;100.00
20444;BME280;10381;53.730;10.010;2023-05-20T20:28:25;101882.19;;;11.24;100.00
20444;BME280;10381;53.730;10.010;2023-05-20T20:32:25;101886.47;;;11.14;100.00
20444;BME280;10381;53.730;10.010;2023-05-20T20:36:25;101889.84;;;11.16;100.00